Time;durP1;ratioP1;P1;durP2;ratioP2;P2;SDS_P1;SDS_P2;PMS_P1;PMS_P2;Temp;Humidity;BMP_temperature;BMP_pressure;BME280_temperature;BME280_humidity;BME280_pressure;Samples;Min_cycle;Max_cycle;Signal;HPM_P1;HPM_P2
2023/05/18 00:00:01;;;;;;;9.95;4.60;;;8.80;58.00;;;;;;5033486;28;20036;-66
2023/05/18 00:02:27;;;;;;;7.07;4.18;;;8.70;58.10;;;;;;5016234;28;20049;-66
2023/05/18 00:04:52;;;;;;;6.82;4.18;;;8.70;58.20;;;;;;5020412;28;20025;-65
2023/05/18 00:07:18;;;;;;;7.90;3.80;;;8.70;58.40;;;;;;5032514;28;20077;-66
2023/05/18 00:09:44;;;;;;;8.27;4.13;;;8.60;58.40;;;;;;5021711;28;20033;-66
2023/05/18 00:12:09;;;;;;;11.85;4.55;;;8.60;58.50;;;;;;5039464;28;20026;-65
2023/05/18 00:14:36;;;;;;;6.90;3.97;;;8.50;58.50;;;;;;5039064;28;20095;-68
2023/05/18 00:17:01;;;;;;;7.22;4.05;;;8.50;58.60;;;;;;5020599;28;20053;-66
2023/05/18 00:19:28;;;;;;;11.40;4.47;;;8.50;58.70;;;;;;5038409;28;20033;-65
2023/05/18 00:21:55;;;;;;;8.30;3.95;;;8.40;58.90;;;;;;5035989;28;20364;-67
2023/05/18 00:24:21;;;;;;;9.02;4.15;;;8.40;58.90;;;;;;5038476;28;20026;-66
2023/05/18 00:26:48;;;;;;;5.90;3.85;;;8.40;59.00;;;;;;5032757;28;20025;-68
2023/05/18 00:29:14;;;;;;;12.35;4.20;;;8.30;58.90;;;;;;5039060;28;20025;-67
2023/05/18 00:31:42;;;;;;;9.60;3.78;;;8.30;59.00;;;;;;5032467;28;20033;-67
2023/05/18 00:34:08;;;;;;;9.20;3.83;;;8.30;59.00;;;;;;5033776;28;20026;-67
2023/05/18 00:36:35;;;;;;;9.00;3.60;;;8.20;59.00;;;;;;5036485;28;20049;-67
2023/05/18 00:39:03;;;;;;;7.78;4.05;;;8.20;59.00;;;;;;5032471;28;20048;-66
2023/05/18 00:41:29;;;;;;;7.75;3.67;;;8.20;59.10;;;;;;5030723;28;20615;-66
2023/05/18 00:43:55;;;;;;;6.90;3.55;;;8.20;59.20;;;;;;5032505;28;20052;-67
2023/05/18 00:46:22;;;;;;;8.45;3.60;;;8.20;59.30;;;;;;5035496;28;20056;-67
2023/05/18 00:48:50;;;;;;;8.38;3.70;;;8.20;59.40;;;;;;5036066;28;20021;-66
2023/05/18 00:51:17;;;;;;;5.50;3.30;;;8.20;59.40;;;;;;5037289;28;20053;-66
2023/05/18 00:53:43;;;;;;;10.23;3.40;;;8.20;59.40;;;;;;5037424;28;20037;-67
2023/05/18 00:56:10;;;;;;;9.07;3.53;;;8.20;59.40;;;;;;5030358;28;20094;-67
2023/05/18 00:58:37;;;;;;;7.85;3.17;;;8.10;59.50;;;;;;5020621;28;20045;-67
2023/05/18 01:01:04;;;;;;;8.45;3.03;;;8.20;59.50;;;;;;5019117;28;20045;-66
2023/05/18 01:03:37;;;;;;;7.32;3.35;;;8.10;59.40;;;;;;5037662;28;20013;-67
2023/05/18 01:06:04;;;;;;;7.25;3.40;;;8.10;59.40;;;;;;5035448;28;20025;-66
2023/05/18 01:08:31;;;;;;;6.05;3.20;;;8.10;59.30;;;;;;5041225;28;20376;-67
2023/05/18 01:11:23;;;;;;;4.75;2.92;;;8.10;59.20;;;;;;5037577;28;20040;-66
2023/05/18 01:14:11;;;;;;;7.53;2.95;;;8.00;59.60;;;;;;5037317;28;20125;-67
2023/05/18 01:17:16;;;;;;;10.43;3.55;;;8.00;59.50;;;;;;5037995;28;20052;-65
2023/05/18 01:19:41;;;;;;;4.50;2.20;;;8.00;60.00;;;;;;4993694;28;20076;-66
2023/05/18 01:22:34;;;;;;;5.15;2.83;;;7.90;58.80;;;;;;5040780;28;20275;-66
2023/05/18 01:25:13;;;;;;;6.85;3.25;;;7.90;59.50;;;;;;5037709;28;20052;-66
2023/05/18 01:27:41;;;;;;;7.28;3.00;;;7.80;59.60;;;;;;5038151;28;20040;-66
2023/05/18 01:30:08;;;;;;;7.93;3.35;;;7.80;59.30;;;;;;5038516;28;21626;-66
2023/05/18 01:32:41;;;;;;;5.88;3.35;;;7.80;59.30;;;;;;5035289;28;20029;-67
2023/05/18 01:35:07;;;;;;;6.00;3.30;;;7.80;59.60;;;;;;5036790;28;20026;-66
2023/05/18 01:37:33;;;;;;;8.10;3.40;;;7.70;59.40;;;;;;5037991;28;22146;-66
2023/05/18 01:39:59;;;;;;;8.68;3.50;;;7.70;59.60;;;;;;4947741;28;20542;-65
2023/05/18 01:42:29;;;;;;;5.07;3.05;;;7.70;59.80;;;;;;5020466;28;20097;-66
2023/05/18 01:45:01;;;;;;;5.90;3.33;;;7.70;59.90;;;;;;5044923;28;20044;-66
2023/05/18 01:47:30;;;;;;;5.65;3.28;;;7.70;60.00;;;;;;5042337;28;20033;-66
2023/05/18 01:50:04;;;;;;;6.72;3.17;;;7.60;59.90;;;;;;5037148;28;20025;-66
2023/05/18 01:52:45;;;;;;;7.88;3.00;;;7.60;60.10;;;;;;5039136;28;20079;-66
2023/05/18 01:55:14;;;;;;;5.95;3.03;;;7.60;60.30;;;;;;5037053;28;20030;-66
2023/05/18 01:57:43;;;;;;;6.28;3.47;;;7.60;59.70;;;;;;5036051;28;20041;-66
2023/05/18 02:00:09;;;;;;;8.73;3.15;;;7.60;59.70;;;;;;5037508;28;20029;-66
2023/05/18 02:02:36;;;;;;;5.50;3.17;;;7.50;59.70;;;;;;5038941;28;20040;-67
2023/05/18 02:05:03;;;;;;;8.55;3.38;;;7.50;59.90;;;;;;5022583;28;20025;-66
2023/05/18 02:07:29;;;;;;;5.75;3.03;;;7.50;60.00;;;;;;5038528;28;20052;-67
2023/05/18 02:09:55;;;;;;;5.97;3.08;;;7.50;60.70;;;;;;5034972;28;20030;-67
2023/05/18 02:12:21;;;;;;;6.78;3.30;;;7.50;60.10;;;;;;5032391;28;20034;-67
2023/05/18 02:14:47;;;;;;;10.20;3.40;;;7.50;60.00;;;;;;5038704;28;20048;-66
2023/05/18 02:17:13;;;;;;;9.57;3.63;;;7.50;60.00;;;;;;5036739;28;20026;-66
2023/05/18 02:19:39;;;;;;;5.82;3.10;;;7.40;60.10;;;;;;5037245;28;20033;-66
2023/05/18 02:22:06;;;;;;;6.43;2.88;;;7.40;60.20;;;;;;5038333;28;20033;-65
2023/05/18 02:24:33;;;;;;;5.05;3.17;;;7.40;60.10;;;;;;5035324;28;20026;-66
2023/05/18 02:26:58;;;;;;;7.93;3.05;;;7.30;59.90;;;;;;5038052;28;20032;-67
2023/05/18 02:29:24;;;;;;;7.15;2.92;;;7.30;60.00;;;;;;5036690;28;20034;-66
2023/05/18 02:31:50;;;;;;;8.68;3.50;;;7.30;60.30;;;;;;5036768;28;20080;-66
2023/05/18 02:34:16;;;;;;;4.47;3.15;;;7.30;60.40;;;;;;5019616;28;20180;-65
2023/05/18 02:36:42;;;;;;;6.53;3.17;;;7.30;60.50;;;;;;5039394;28;20051;-67
2023/05/18 02:39:09;;;;;;;6.63;3.60;;;7.30;60.60;;;;;;5039488;28;20048;-67
2023/05/18 02:41:35;;;;;;;6.05;3.15;;;7.20;60.60;;;;;;5037038;28;20032;-69
2023/05/18 02:44:02;;;;;;;13.35;4.07;;;7.20;60.60;;;;;;5036042;28;20064;-66
2023/05/18 02:46:28;;;;;;;8.57;3.58;;;7.20;60.50;;;;;;5014175;28;20036;-67
2023/05/18 02:48:54;;;;;;;11.02;4.28;;;7.20;60.50;;;;;;5036390;28;20041;-66
2023/05/18 02:51:22;;;;;;;9.50;3.42;;;7.20;60.60;;;;;;5034072;28;20057;-67
2023/05/18 02:53:49;;;;;;;5.50;3.42;;;7.10;60.50;;;;;;5034046;28;20026;-67
2023/05/18 02:56:16;;;;;;;10.52;3.72;;;7.10;60.70;;;;;;5039133;28;21994;-67
2023/05/18 02:58:42;;;;;;;5.93;3.63;;;7.10;60.70;;;;;;5034919;28;20850;-65
2023/05/18 03:01:10;;;;;;;7.85;3.20;;;7.10;60.80;;;;;;5019826;28;20045;-66
2023/05/18 03:03:37;;;;;;;5.80;3.33;;;7.10;60.80;;;;;;5036887;28;20025;-66
2023/05/18 03:06:03;;;;;;;5.50;2.97;;;7.10;60.90;;;;;;5036365;28;20029;-66
2023/05/18 03:08:30;;;;;;;8.40;3.78;;;7.10;60.90;;;;;;5029011;28;20167;-65
2023/05/18 03:10:56;;;;;;;5.25;3.05;;;7.10;60.90;;;;;;5031439;28;20040;-66
2023/05/18 03:13:24;;;;;;;7.72;3.22;;;7.00;60.80;;;;;;5037926;28;20548;-65
2023/05/18 03:15:50;;;;;;;5.03;3.10;;;7.00;60.70;;;;;;5038110;28;20558;-67
2023/05/18 03:18:17;;;;;;;6.57;3.10;;;6.90;60.70;;;;;;5038486;28;20032;-67
2023/05/18 03:20:43;;;;;;;6.32;3.25;;;6.90;60.80;;;;;;5035571;28;20074;-67
2023/05/18 03:23:09;;;;;;;6.85;3.47;;;6.90;60.90;;;;;;5032633;28;20117;-66
2023/05/18 03:25:36;;;;;;;9.45;3.42;;;6.90;61.00;;;;;;5035747;28;20072;-66
2023/05/18 03:28:03;;;;;;;10.82;3.28;;;6.80;61.70;;;;;;5017711;28;20045;-66
2023/05/18 03:30:33;;;;;;;6.70;3.80;;;6.80;61.00;;;;;;5037898;28;20029;-65
2023/05/18 03:33:02;;;;;;;6.80;3.17;;;6.90;61.10;;;;;;5034037;28;20350;-67
2023/05/18 03:35:28;;;;;;;7.43;3.42;;;6.80;61.20;;;;;;5031521;28;20052;-66
2023/05/18 03:37:54;;;;;;;8.57;3.22;;;6.80;61.10;;;;;;5037104;28;20017;-66
2023/05/18 03:40:20;;;;;;;6.82;3.88;;;6.80;61.20;;;;;;5036314;28;20046;-66
2023/05/18 03:42:45;;;;;;;7.38;3.78;;;6.80;61.40;;;;;;5035443;28;20107;-66
2023/05/18 03:45:11;;;;;;;8.90;3.35;;;6.80;61.40;;;;;;5021450;28;20038;-68
2023/05/18 03:47:38;;;;;;;10.20;3.50;;;6.80;61.40;;;;;;5038256;28;20036;-67
2023/05/18 03:50:05;;;;;;;6.20;3.10;;;6.80;61.50;;;;;;5013632;28;20052;-66
2023/05/18 03:52:35;;;;;;;6.50;3.30;;;6.80;61.40;;;;;;5036353;28;20029;-66
2023/05/18 03:55:01;;;;;;;7.18;3.38;;;6.80;61.70;;;;;;5037241;28;20018;-66
2023/05/18 03:57:30;;;;;;;4.95;3.20;;;6.70;61.60;;;;;;5037396;28;20129;-66
2023/05/18 03:59:56;;;;;;;6.15;3.13;;;6.80;62.00;;;;;;5019933;28;20056;-66
2023/05/18 04:02:23;;;;;;;9.13;3.53;;;6.80;61.80;;;;;;5036521;28;20029;-67
2023/05/18 04:04:48;;;;;;;9.95;3.58;;;6.80;61.80;;;;;;5034333;28;20037;-66
2023/05/18 04:07:20;;;;;;;6.03;3.45;;;6.80;61.90;;;;;;5038253;28;20775;-66
2023/05/18 04:09:47;;;;;;;5.45;3.17;;;6.80;61.80;;;;;;5019804;28;20065;-67
2023/05/18 04:12:13;;;;;;;7.68;3.47;;;6.80;61.80;;;;;;5036298;28;20024;-66
2023/05/18 04:14:41;;;;;;;7.10;3.40;;;6.80;61.90;;;;;;5032555;28;20037;-67
2023/05/18 04:17:07;;;;;;;6.10;3.20;;;6.80;61.90;;;;;;5037722;28;20013;-66
2023/05/18 04:19:33;;;;;;;6.22;3.08;;;6.80;61.90;;;;;;5021226;28;20493;-66
2023/05/18 04:22:03;;;;;;;7.88;3.80;;;6.90;61.90;;;;;;5037599;28;20021;-65
2023/05/18 04:24:31;;;;;;;8.35;3.70;;;6.90;61.90;;;;;;5035500;28;20034;-66
2023/05/18 04:27:00;;;;;;;8.68;3.40;;;6.90;62.10;;;;;;5038802;28;20025;-66
2023/05/18 04:29:27;;;;;;;8.68;3.58;;;7.00;62.30;;;;;;5034593;28;20083;-66
2023/05/18 04:31:58;;;;;;;7.63;3.58;;;7.00;62.20;;;;;;5039012;28;20470;-65
2023/05/18 04:34:25;;;;;;;6.97;3.38;;;7.10;62.40;;;;;;5035605;28;20109;-65
2023/05/18 04:36:53;;;;;;;6.18;3.80;;;7.10;62.40;;;;;;5041799;28;20029;-66
2023/05/18 04:39:26;;;;;;;7.03;3.35;;;7.10;62.50;;;;;;5023992;28;20052;-65
2023/05/18 04:41:56;;;;;;;9.05;3.78;;;7.20;63.10;;;;;;5038313;28;20045;-66
2023/05/18 04:44:26;;;;;;;7.63;3.65;;;7.30;62.70;;;;;;5035410;28;20070;-66
2023/05/18 04:46:55;;;;;;;7.57;3.10;;;7.40;62.90;;;;;;5037832;28;20036;-66
2023/05/18 04:49:21;;;;;;;7.35;3.13;;;7.40;62.90;;;;;;5041429;28;20036;-67
2023/05/18 04:51:57;;;;;;;6.47;2.80;;;7.60;63.00;;;;;;5037518;28;20033;-65
2023/05/18 04:54:29;;;;;;;4.65;2.72;;;7.60;63.00;;;;;;5038356;28;20022;-67
2023/05/18 04:56:55;;;;;;;9.52;3.70;;;7.70;63.00;;;;;;5042440;28;20052;-66
2023/05/18 04:59:25;;;;;;;6.35;2.83;;;7.80;62.80;;;;;;5043727;28;20083;-67
2023/05/18 05:01:51;;;;;;;5.50;2.85;;;7.90;62.60;;;;;;5034499;28;20049;-66
2023/05/18 05:04:18;;;;;;;8.27;3.13;;;8.10;62.80;;;;;;5035270;28;20047;-66
2023/05/18 05:06:44;;;;;;;6.80;3.10;;;8.20;62.60;;;;;;5025150;28;20044;-66
2023/05/18 05:09:12;;;;;;;10.07;2.78;;;8.20;62.80;;;;;;5037096;28;20061;-66
2023/05/18 05:11:38;;;;;;;13.10;3.28;;;8.40;62.70;;;;;;5041736;28;20056;-66
2023/05/18 05:14:04;;;;;;;11.63;3.03;;;8.50;62.50;;;;;;5017783;28;20127;-66
2023/05/18 05:16:30;;;;;;;6.93;2.80;;;8.70;62.60;;;;;;5040623;28;20422;-65
2023/05/18 05:18:55;;;;;;;12.93;3.47;;;8.80;62.40;;;;;;5039879;28;20017;-66
2023/05/18 05:21:21;;;;;;;7.97;2.85;;;9.00;62.10;;;;;;5025547;28;20033;-66
2023/05/18 05:23:47;;;;;;;11.73;3.47;;;9.10;61.90;;;;;;5040544;28;20034;-66
2023/05/18 05:26:12;;;;;;;6.30;2.75;;;9.30;61.70;;;;;;5040255;28;20079;-66
2023/05/18 05:28:38;;;;;;;10.65;3.15;;;9.40;61.60;;;;;;5038118;28;20026;-66
2023/05/18 05:31:04;;;;;;;8.10;3.30;;;9.60;61.40;;;;;;5020984;28;20082;-66
2023/05/18 05:33:29;;;;;;;9.02;3.00;;;9.70;61.20;;;;;;5041326;28;20022;-66
2023/05/18 05:35:55;;;;;;;8.15;3.60;;;9.90;61.00;;;;;;5038220;28;20029;-67
2023/05/18 05:38:21;;;;;;;8.20;3.35;;;10.00;60.90;;;;;;5032028;28;20032;-67
2023/05/18 05:40:46;;;;;;;7.47;2.95;;;10.10;60.60;;;;;;5035624;28;20041;-68
2023/05/18 05:43:12;;;;;;;8.60;3.30;;;10.30;60.40;;;;;;5033593;28;20442;-66
2023/05/18 05:45:38;;;;;;;10.50;2.80;;;10.50;60.20;;;;;;5034897;28;20112;-66
2023/05/18 05:48:04;;;;;;;8.30;3.03;;;10.60;60.10;;;;;;5034089;28;20068;-66
2023/05/18 05:50:31;;;;;;;7.82;3.20;;;10.70;59.90;;;;;;5033582;28;20022;-66
2023/05/18 05:52:56;;;;;;;7.47;2.70;;;10.90;59.70;;;;;;5019675;28;20091;-66
2023/05/18 05:55:22;;;;;;;8.18;3.00;;;11.00;59.40;;;;;;5034527;28;20022;-65
2023/05/18 05:57:48;;;;;;;14.43;3.38;;;11.20;59.20;;;;;;5036480;28;20022;-67
2023/05/18 06:00:14;;;;;;;11.75;3.20;;;11.30;59.20;;;;;;5035577;28;20089;-66
2023/05/18 06:02:40;;;;;;;17.15;3.35;;;11.50;59.00;;;;;;5035462;28;20085;-65
2023/05/18 06:05:07;;;;;;;10.82;3.63;;;11.60;58.70;;;;;;5037953;28;20042;-67
2023/05/18 06:07:33;;;;;;;9.48;3.47;;;11.70;58.60;;;;;;5032781;28;20026;-67
2023/05/18 06:10:00;;;;;;;12.07;3.38;;;11.90;58.40;;;;;;5037172;28;20026;-67
2023/05/18 06:12:26;;;;;;;9.00;3.75;;;12.00;58.10;;;;;;5034319;28;20029;-67
2023/05/18 06:14:56;;;;;;;11.70;3.35;;;12.10;58.00;;;;;;5034693;28;20018;-67
2023/05/18 06:17:25;;;;;;;8.50;3.55;;;12.20;57.40;;;;;;5039177;28;20021;-68
2023/05/18 06:19:52;;;;;;;14.25;3.97;;;12.30;57.60;;;;;;5035199;28;20033;-67
2023/05/18 06:22:17;;;;;;;8.85;3.42;;;12.50;57.50;;;;;;5035492;28;20034;-68
2023/05/18 06:24:43;;;;;;;9.88;2.83;;;12.60;57.50;;;;;;5032334;28;20806;-69
2023/05/18 06:27:10;;;;;;;8.90;2.97;;;12.80;57.30;;;;;;5035406;28;20152;-68
2023/05/18 06:29:36;;;;;;;12.52;3.50;;;12.90;57.10;;;;;;5029050;28;20026;-67
2023/05/18 06:32:02;;;;;;;7.07;2.72;;;13.10;57.00;;;;;;5031028;28;20036;-69
2023/05/18 06:34:28;;;;;;;7.57;3.05;;;13.20;56.80;;;;;;5030761;28;20032;-68
2023/05/18 06:36:53;;;;;;;8.20;3.35;;;13.40;56.70;;;;;;5017661;28;20034;-68
2023/05/18 06:39:19;;;;;;;6.05;2.58;;;13.50;56.50;;;;;;5019203;28;20053;-67
2023/05/18 06:41:45;;;;;;;8.60;3.00;;;13.70;56.30;;;;;;5039366;28;20480;-68
2023/05/18 06:44:11;;;;;;;9.85;2.75;;;13.80;56.20;;;;;;5017587;28;20057;-68
2023/05/18 06:46:37;;;;;;;9.52;2.80;;;13.90;55.90;;;;;;5005780;28;20030;-68
2023/05/18 06:49:03;;;;;;;10.73;3.05;;;14.10;55.70;;;;;;5024562;28;20113;-68
2023/05/18 06:51:30;;;;;;;7.90;2.38;;;14.20;55.60;;;;;;5027470;28;20033;-69
2023/05/18 06:53:56;;;;;;;6.97;2.60;;;14.30;55.90;;;;;;5019029;28;20041;-69
2023/05/18 06:56:22;;;;;;;7.68;3.08;;;14.40;55.10;;;;;;5025772;28;20026;-69
2023/05/18 06:58:48;;;;;;;11.45;2.97;;;14.50;55.10;;;;;;4998948;28;20025;-67
2023/05/18 07:01:16;;;;;;;7.50;2.70;;;14.70;54.70;;;;;;5026512;28;20113;-68
2023/05/18 07:03:42;;;;;;;10.30;3.25;;;14.70;54.50;;;;;;5020896;28;20017;-68
2023/05/18 07:06:08;;;;;;;8.10;2.65;;;14.80;54.00;;;;;;5025405;28;20021;-66
2023/05/18 07:08:35;;;;;;;9.88;3.45;;;14.90;53.60;;;;;;5014430;28;20383;-67
2023/05/18 07:11:02;;;;;;;10.38;3.00;;;15.00;52.80;;;;;;5022684;28;20013;-67
2023/05/18 07:13:28;;;;;;;12.73;3.20;;;15.00;53.50;;;;;;4999661;28;20034;-68
2023/05/18 07:15:53;;;;;;;8.32;2.78;;;15.10;53.40;;;;;;5021646;28;20018;-66
2023/05/18 07:18:19;;;;;;;11.70;3.15;;;15.20;53.40;;;;;;5028175;28;20030;-67
2023/05/18 07:20:45;;;;;;;7.22;2.40;;;15.30;53.20;;;;;;5026395;28;20061;-67
2023/05/18 07:23:12;;;;;;;9.93;2.60;;;15.40;53.00;;;;;;5020365;28;20025;-68
2023/05/18 07:25:38;;;;;;;13.73;3.20;;;15.50;53.00;;;;;;5021229;28;20633;-66
2023/05/18 07:28:03;;;;;;;11.07;3.25;;;15.50;52.50;;;;;;5022325;28;20053;-66
2023/05/18 07:30:29;;;;;;;6.68;2.72;;;15.70;51.50;;;;;;5018326;28;20062;-67
2023/05/18 07:32:56;;;;;;;16.55;3.25;;;15.70;51.60;;;;;;4998853;28;20077;-68
2023/05/18 07:35:22;;;;;;;8.50;2.90;;;15.80;52.00;;;;;;5011776;28;20093;-68
2023/05/18 07:37:50;;;;;;;9.10;2.90;;;15.90;52.00;;;;;;5024065;28;20025;-67
2023/05/18 07:40:16;;;;;;;9.13;3.05;;;16.00;52.00;;;;;;4932370;28;20048;-69
2023/05/18 07:42:42;;;;;;;7.93;3.00;;;16.00;51.70;;;;;;5017230;28;20117;-67
2023/05/18 07:45:10;;;;;;;9.38;2.72;;;16.10;51.60;;;;;;5001848;28;20097;-68
2023/05/18 07:47:36;;;;;;;10.63;2.63;;;16.20;51.60;;;;;;5029289;28;20036;-68
2023/05/18 07:50:02;;;;;;;9.07;2.83;;;16.30;51.50;;;;;;5033160;28;20038;-68
2023/05/18 07:52:27;;;;;;;10.93;3.03;;;16.40;51.30;;;;;;5035420;28;20036;-67
2023/05/18 07:54:56;;;;;;;10.00;2.78;;;16.50;51.20;;;;;;5036838;28;20026;-69
2023/05/18 07:57:23;;;;;;;8.88;2.92;;;16.50;50.80;;;;;;5039182;28;20029;-68
2023/05/18 07:59:49;;;;;;;12.30;3.40;;;16.60;51.00;;;;;;5037517;28;20029;-68
2023/05/18 08:02:18;;;;;;;7.68;2.70;;;16.70;50.80;;;;;;5013777;28;20053;-69
2023/05/18 08:04:45;;;;;;;15.00;3.03;;;16.70;50.20;;;;;;5029735;28;20084;-68
2023/05/18 08:07:11;;;;;;;11.52;3.30;;;16.80;49.90;;;;;;5035069;28;20042;-68
2023/05/18 08:09:37;;;;;;;7.40;2.75;;;16.90;49.50;;;;;;5034930;28;20021;-68
2023/05/18 08:12:04;;;;;;;9.65;2.92;;;16.90;49.50;;;;;;5034421;28;20056;-67
2023/05/18 08:14:30;;;;;;;11.52;2.88;;;16.90;48.10;;;;;;5032914;28;20110;-66
2023/05/18 08:16:55;;;;;;;7.70;2.70;;;17.00;48.60;;;;;;5028584;28;20779;-65
2023/05/18 08:19:21;;;;;;;12.82;3.08;;;17.00;48.90;;;;;;5029421;28;20053;-67
2023/05/18 08:21:47;;;;;;;12.45;3.30;;;17.10;48.50;;;;;;5015570;28;20109;-67
2023/05/18 08:24:13;;;;;;;9.32;2.78;;;17.20;48.60;;;;;;5032672;28;20036;-67
2023/05/18 08:26:38;;;;;;;8.88;3.00;;;17.30;49.10;;;;;;5031146;28;20040;-66
2023/05/18 08:29:10;;;;;;;7.07;2.58;;;17.40;48.80;;;;;;5030135;28;20038;-67
2023/05/18 08:31:39;;;;;;;9.70;2.60;;;17.50;48.90;;;;;;5016979;28;20036;-67
2023/05/18 08:34:06;;;;;;;8.13;2.40;;;17.60;47.90;;;;;;5031395;28;21024;-67
2023/05/18 08:36:36;;;;;;;9.63;2.80;;;17.70;48.10;;;;;;5031457;28;20088;-67
2023/05/18 08:39:02;;;;;;;10.07;3.05;;;17.80;46.60;;;;;;5031554;28;20025;-66
2023/05/18 08:41:30;;;;;;;11.18;2.70;;;17.90;47.30;;;;;;4953875;28;20045;-65
2023/05/18 08:44:08;;;;;;;10.48;2.63;;;18.00;45.80;;;;;;5033022;28;20129;-66
2023/05/18 08:46:41;;;;;;;9.48;2.30;;;18.10;45.80;;;;;;5030355;28;20058;-66
2023/05/18 08:49:09;;;;;;;8.60;2.70;;;18.10;46.10;;;;;;5029855;28;20043;-65
2023/05/18 08:51:36;;;;;;;8.75;2.50;;;18.20;46.60;;;;;;5033800;28;20021;-68
2023/05/18 08:54:04;;;;;;;12.10;2.90;;;18.30;46.80;;;;;;5031796;28;20116;-65
2023/05/18 08:56:33;;;;;;;15.88;3.15;;;18.30;46.50;;;;;;5030844;28;20052;-66
2023/05/18 08:59:02;;;;;;;9.73;2.53;;;18.40;46.50;;;;;;5031899;28;20030;-66
2023/05/18 09:01:28;;;;;;;8.30;2.67;;;18.50;44.40;;;;;;5028206;28;20038;-67
2023/05/18 09:03:57;;;;;;;11.50;2.55;;;18.60;45.80;;;;;;5024263;28;20021;-66
2023/05/18 09:06:24;;;;;;;11.18;2.42;;;18.60;45.40;;;;;;5032570;28;20049;-66
2023/05/18 09:08:55;;;;;;;8.80;2.90;;;18.70;45.40;;;;;;5035949;28;20068;-66
2023/05/18 09:11:23;;;;;;;8.77;2.45;;;18.70;45.20;;;;;;5035863;28;20095;-66
2023/05/18 09:13:51;;;;;;;7.93;2.85;;;18.80;45.00;;;;;;5031470;28;20029;-67
2023/05/18 09:16:18;;;;;;;8.95;2.70;;;18.80;45.30;;;;;;5036453;28;20037;-66
2023/05/18 09:18:44;;;;;;;10.80;2.30;;;18.90;45.00;;;;;;5039353;28;20018;-67
2023/05/18 09:21:10;;;;;;;8.43;2.58;;;18.90;44.90;;;;;;5041242;28;20141;-67
2023/05/18 09:23:38;;;;;;;8.85;2.75;;;19.00;44.80;;;;;;5037470;28;20026;-67
2023/05/18 09:26:04;;;;;;;10.77;2.50;;;19.00;44.30;;;;;;5039551;28;20021;-67
2023/05/18 09:28:34;;;;;;;10.77;2.58;;;19.00;44.60;;;;;;5034078;28;20056;-68
2023/05/18 09:30:59;;;;;;;10.45;2.10;;;19.10;44.00;;;;;;5016865;28;20037;-68
2023/05/18 09:33:31;;;;;;;12.40;2.40;;;19.10;43.60;;;;;;5036779;28;20037;-68
2023/05/18 09:35:56;;;;;;;13.75;3.53;;;19.10;42.70;;;;;;5039327;28;20032;-68
2023/05/18 09:38:23;;;;;;;7.88;2.65;;;19.10;41.90;;;;;;5039277;28;20026;-66
2023/05/18 09:40:49;;;;;;;6.60;2.38;;;19.00;42.90;;;;;;4973034;28;20034;-68
2023/05/18 09:43:19;;;;;;;6.82;2.42;;;19.00;43.60;;;;;;5039392;28;20376;-68
2023/05/18 09:45:47;;;;;;;10.18;2.60;;;19.10;43.30;;;;;;5036503;28;20036;-68
2023/05/18 09:48:15;;;;;;;7.90;2.30;;;19.10;44.00;;;;;;5036101;28;20045;-69
2023/05/18 09:50:42;;;;;;;8.93;2.20;;;19.20;43.40;;;;;;5035455;28;20033;-67
2023/05/18 09:53:09;;;;;;;7.28;2.65;;;19.30;42.40;;;;;;5018024;28;20040;-67
2023/05/18 09:55:47;;;;;;;8.48;2.47;;;19.30;42.80;;;;;;5039993;28;20021;-68
2023/05/18 09:58:13;;;;;;;11.20;2.55;;;19.30;42.20;;;;;;5040502;28;20029;-68
2023/05/18 10:00:48;;;;;;;10.32;2.60;;;19.40;42.70;;;;;;5020569;28;20037;-68
2023/05/18 10:03:21;;;;;;;8.00;2.15;;;19.50;42.70;;;;;;5033862;28;20147;-67
2023/05/18 10:05:47;;;;;;;10.20;2.30;;;19.50;42.00;;;;;;5042400;28;20014;-67
2023/05/18 10:08:14;;;;;;;5.18;1.85;;;19.50;43.10;;;;;;5039399;28;20041;-68
2023/05/18 10:10:43;;;;;;;7.43;2.30;;;19.60;43.00;;;;;;5040158;28;20025;-67
2023/05/18 10:13:19;;;;;;;9.60;2.35;;;19.70;43.00;;;;;;5036943;28;20057;-68
2023/05/18 10:15:54;;;;;;;8.48;2.35;;;19.80;42.60;;;;;;5033001;28;20025;-66
2023/05/18 10:18:23;;;;;;;7.25;2.17;;;19.90;42.20;;;;;;5039227;28;20060;-68
2023/05/18 10:20:50;;;;;;;14.10;2.85;;;20.00;41.40;;;;;;5039397;28;20037;-65
2023/05/18 10:23:18;;;;;;;10.55;3.47;;;20.00;41.90;;;;;;5038123;28;20014;-65
2023/05/18 10:25:46;;;;;;;9.15;2.80;;;20.10;41.80;;;;;;5029800;28;20088;-66
2023/05/18 10:28:17;;;;;;;12.40;4.30;;;20.10;42.20;;;;;;5036223;28;20049;-69
2023/05/18 10:30:43;;;;;;;6.30;3.30;;;20.20;41.90;;;;;;5036680;28;20034;-67
2023/05/18 10:33:09;;;;;;;9.65;2.50;;;20.30;42.70;;;;;;5038899;28;20372;-68
2023/05/18 10:35:37;;;;;;;7.65;2.35;;;20.30;41.90;;;;;;5036488;28;20026;-66
2023/05/18 10:38:06;;;;;;;9.40;2.33;;;20.40;41.80;;;;;;5023039;28;20025;-66
2023/05/18 10:40:34;;;;;;;8.13;2.20;;;20.50;41.90;;;;;;5038674;28;20067;-66
2023/05/18 10:43:02;;;;;;;8.77;2.10;;;20.50;41.40;;;;;;5032367;28;20041;-68
2023/05/18 10:45:33;;;;;;;10.30;2.30;;;20.60;41.20;;;;;;5036475;28;20058;-67
2023/05/18 10:48:03;;;;;;;9.02;2.33;;;20.60;41.40;;;;;;5040181;28;20029;-67
2023/05/18 10:50:30;;;;;;;8.88;2.55;;;20.70;41.80;;;;;;5021670;28;20081;-68
2023/05/18 10:52:58;;;;;;;8.00;2.33;;;20.80;41.50;;;;;;5020947;28;20467;-68
2023/05/18 10:55:26;;;;;;;11.88;2.17;;;20.80;41.10;;;;;;5048802;28;20033;-67
2023/05/18 10:57:58;;;;;;;10.80;2.63;;;20.90;40.60;;;;;;5029533;28;20021;-68
2023/05/18 11:00:24;;;;;;;5.65;1.73;;;20.90;40.30;;;;;;5038486;28;20115;-66
2023/05/18 11:02:51;;;;;;;6.43;1.90;;;21.00;40.60;;;;;;5034523;28;20021;-67
2023/05/18 11:05:23;;;;;;;7.40;2.30;;;21.00;40.70;;;;;;5032624;28;20607;-66
2023/05/18 11:07:49;;;;;;;11.45;2.22;;;21.10;40.00;;;;;;5038364;28;20053;-66
2023/05/18 11:10:15;;;;;;;7.63;2.17;;;21.20;40.00;;;;;;5038000;28;20041;-66
2023/05/18 11:12:41;;;;;;;13.02;2.30;;;21.30;40.40;;;;;;5032246;28;20032;-67
2023/05/18 11:15:08;;;;;;;7.10;2.55;;;21.40;40.40;;;;;;5016953;28;20038;-68
2023/05/18 11:17:33;;;;;;;7.07;2.58;;;21.40;40.80;;;;;;5037157;28;20037;-68
2023/05/18 11:20:07;;;;;;;13.20;2.60;;;21.50;40.80;;;;;;5036141;28;20073;-67
2023/05/18 11:22:52;;;;;;;7.22;1.85;;;21.60;40.40;;;;;;5037419;28;20033;-65
2023/05/18 11:25:30;;;;;;;5.55;1.77;;;21.70;38.30;;;;;;5039857;28;20025;-67
2023/05/18 11:28:01;;;;;;;10.35;2.25;;;21.80;38.60;;;;;;5037982;28;20034;-68
2023/05/18 11:30:32;;;;;;;4.80;2.00;;;21.70;38.40;;;;;;5037487;28;20056;-69
2023/05/18 11:33:11;;;;;;;6.70;2.20;;;21.70;38.70;;;;;;5035027;28;20565;-68
2023/05/18 11:36:03;;;;;;;15.13;3.03;;;21.70;37.70;;;;;;5037328;28;20067;-68
2023/05/18 11:38:50;;;;;;;7.22;2.65;;;21.70;37.60;;;;;;5036580;28;20051;-67
2023/05/18 11:41:30;;;;;;;10.57;2.83;;;21.70;38.60;;;;;;5015587;28;20037;-68
2023/05/18 11:44:10;;;;;;;5.95;2.42;;;21.80;38.90;;;;;;5038160;28;20038;-67
2023/05/18 11:46:39;;;;;;;10.70;5.35;;;21.90;38.20;;;;;;5033807;28;20085;-66
2023/05/18 11:49:08;;;;;;;9.80;3.10;;;22.00;38.30;;;;;;5029942;28;20026;-67
2023/05/18 11:52:01;;;;;;;8.05;2.95;;;22.10;37.70;;;;;;5037166;28;20033;-70
2023/05/18 11:54:27;;;;;;;8.75;2.00;;;22.10;37.90;;;;;;5037398;28;20425;-68
2023/05/18 11:56:53;;;;;;;7.95;2.30;;;22.10;38.30;;;;;;5039447;28;20026;-69
2023/05/18 11:59:30;;;;;;;12.65;2.58;;;22.20;37.90;;;;;;5040083;28;20034;-66
2023/05/18 12:02:01;;;;;;;4.65;1.70;;;22.20;37.00;;;;;;5035035;28;20097;-68
2023/05/18 12:04:28;;;;;;;9.25;2.53;;;22.30;38.30;;;;;;5036898;28;20022;-69
2023/05/18 12:06:55;;;;;;;7.75;2.35;;;22.30;37.70;;;;;;5037291;28;20021;-67
2023/05/18 12:09:21;;;;;;;9.00;2.45;;;22.40;38.10;;;;;;5034832;28;20048;-67
2023/05/18 12:11:47;;;;;;;7.32;2.45;;;22.50;37.80;;;;;;5029983;28;20030;-68
2023/05/18 12:14:13;;;;;;;23.83;12.13;;;22.50;37.40;;;;;;5033705;28;20041;-69
2023/05/18 12:16:39;;;;;;;11.30;6.63;;;22.60;37.40;;;;;;5036666;28;20029;-68
2023/05/18 12:19:08;;;;;;;10.77;4.55;;;22.70;37.60;;;;;;5038435;28;20028;-69
2023/05/18 12:21:35;;;;;;;9.95;3.50;;;22.70;37.50;;;;;;5038267;28;20090;-66
2023/05/18 12:24:02;;;;;;;9.70;2.50;;;22.80;37.20;;;;;;5039644;28;20022;-66
2023/05/18 12:26:28;;;;;;;9.68;2.75;;;22.90;37.20;;;;;;5036058;28;20037;-67
2023/05/18 12:28:56;;;;;;;7.93;2.90;;;22.90;37.50;;;;;;5033328;28;20025;-67
2023/05/18 12:31:22;;;;;;;16.80;8.05;;;23.00;36.70;;;;;;5019328;28;20041;-68
2023/05/18 12:33:48;;;;;;;7.95;2.92;;;23.00;37.70;;;;;;5039420;28;20048;-66
2023/05/18 12:36:15;;;;;;;13.27;6.97;;;23.10;37.30;;;;;;5039782;28;20500;-67
2023/05/18 12:38:41;;;;;;;9.35;2.40;;;23.20;37.00;;;;;;5035477;28;20047;-67
2023/05/18 12:41:07;;;;;;;10.45;2.28;;;23.20;36.40;;;;;;4948570;28;20097;-67
2023/05/18 12:43:36;;;;;;;6.07;2.20;;;23.30;37.10;;;;;;5037402;28;20068;-67
2023/05/18 12:46:03;;;;;;;4.95;2.15;;;23.40;36.80;;;;;;5035485;28;20037;-68
2023/05/18 12:48:37;;;;;;;11.75;4.60;;;23.40;37.10;;;;;;5037279;28;20029;-69
2023/05/18 12:51:02;;;;;;;14.45;7.28;;;23.40;36.90;;;;;;5038061;28;20025;-70